Time;durP1;ratioP1;P1;durP2;ratioP2;P2;SDS_P1;SDS_P2;PMS_P1;PMS_P2;Temp;Humidity;BMP_temperature;BMP_pressure;BME280_temperature;BME280_humidity;BME280_pressure;Samples;Min_cycle;Max_cycle;Signal;HPM_P1;HPM_P2
2022/11/28 00:02:20;;;;;;;6.43;5.82;;;;;;;;;;5065816;28;20135;-62
2022/11/28 00:04:50;;;;;;;7.00;6.30;;;;;;;;;;5064761;28;20086;-62
2022/11/28 00:07:16;;;;;;;5.38;4.88;;;;;;;;;;5064486;28;20040;-62
2022/11/28 00:09:41;;;;;;;5.68;5.07;;;;;;;;;;5064922;28;20102;-62
2022/11/28 00:12:08;;;;;;;5.97;5.40;;;;;;;;;;5065176;28;20295;-62
2022/11/28 00:14:34;;;;;;;5.82;5.00;;;;;;;;;;5063017;28;20437;-62
2022/11/28 00:16:59;;;;;;;6.10;5.28;;;;;;;;;;5066376;28;20093;-63
2022/11/28 00:19:26;;;;;;;5.03;4.53;;;;;;;;;;5064978;28;20044;-62
2022/11/28 00:21:52;;;;;;;5.57;4.65;;;;;;;;;;5065869;28;20114;-63
2022/11/28 00:24:18;;;;;;;6.30;4.80;;;;;;;;;;5065038;28;20475;-62
2022/11/28 00:26:44;;;;;;;7.38;5.63;;;;;;;;;;5065231;28;20044;-63
2022/11/28 00:29:10;;;;;;;7.97;5.60;;;;;;;;;;5062372;28;20372;-62
2022/11/28 00:31:41;;;;;;;7.78;5.15;;;;;;;;;;5064730;28;20033;-62
2022/11/28 00:34:07;;;;;;;6.00;5.20;;;;;;;;;;5064846;28;20644;-62
2022/11/28 00:36:33;;;;;;;5.93;5.32;;;;;;;;;;5065072;28;20097;-62
2022/11/28 00:38:59;;;;;;;5.65;4.78;;;;;;;;;;5065709;28;20048;-62
2022/11/28 00:41:27;;;;;;;6.28;5.18;;;;;;;;;;5065952;28;20395;-62
2022/11/28 00:43:53;;;;;;;5.82;5.32;;;;;;;;;;5064990;28;20060;-62
2022/11/28 00:46:19;;;;;;;6.72;5.80;;;;;;;;;;5065931;28;20029;-62
2022/11/28 00:48:46;;;;;;;5.90;5.38;;;;;;;;;;5064569;28;20055;-62
2022/11/28 00:51:14;;;;;;;6.40;5.80;;;;;;;;;;5061834;28;20076;-62
2022/11/28 00:53:41;;;;;;;5.45;4.97;;;;;;;;;;5064214;28;20037;-62
2022/11/28 00:56:08;;;;;;;5.55;4.95;;;;;;;;;;5064433;28;20111;-62
2022/11/28 00:58:34;;;;;;;5.35;4.85;;;;;;;;;;5063310;28;20041;-62
2022/11/28 01:01:00;;;;;;;4.93;4.28;;;;;;;;;;5064000;28;20219;-62
2022/11/28 01:03:26;;;;;;;5.90;5.20;;;;;;;;;;5063339;28;20040;-62
2022/11/28 01:05:52;;;;;;;7.30;4.55;;;;;;;;;;5064387;28;20072;-62
2022/11/28 01:08:18;;;;;;;4.10;3.80;;;;;;;;;;5064122;28;20148;-62
2022/11/28 01:10:45;;;;;;;5.57;5.07;;;;;;;;;;5062204;28;20048;-62
2022/11/28 01:13:11;;;;;;;4.53;4.13;;;;;;;;;;5064178;28;20088;-62
2022/11/28 01:15:40;;;;;;;4.93;4.50;;;;;;;;;;5064236;28;20325;-62
2022/11/28 01:18:06;;;;;;;5.97;4.63;;;;;;;;;;5063389;28;20047;-62
2022/11/28 01:20:32;;;;;;;6.65;4.47;;;;;;;;;;5065681;28;20036;-62
2022/11/28 01:22:58;;;;;;;6.10;5.40;;;;;;;;;;5063507;28;20071;-62
2022/11/28 01:25:24;;;;;;;4.82;4.25;;;;;;;;;;5063547;28;20036;-62
2022/11/28 01:27:51;;;;;;;6.72;5.18;;;;;;;;;;5063791;28;20045;-62
2022/11/28 01:30:17;;;;;;;6.68;5.97;;;;;;;;;;5063768;28;20108;-62
2022/11/28 01:32:43;;;;;;;4.85;4.35;;;;;;;;;;5063397;28;20556;-62
2022/11/28 01:35:09;;;;;;;5.63;5.05;;;;;;;;;;5064459;28;20037;-62
2022/11/28 01:37:35;;;;;;;5.03;4.53;;;;;;;;;;5064143;28;20041;-62
2022/11/28 01:40:01;;;;;;;4.82;3.88;;;;;;;;;;5064323;28;20048;-62
2022/11/28 01:42:27;;;;;;;4.50;4.10;;;;;;;;;;5063892;28;20037;-62
2022/11/28 01:44:53;;;;;;;6.70;5.75;;;;;;;;;;5063675;28;20496;-62
2022/11/28 01:47:24;;;;;;;5.70;4.75;;;;;;;;;;5062629;28;20051;-62
2022/11/28 01:49:50;;;;;;;5.53;5.00;;;;;;;;;;5063781;28;20084;-62
2022/11/28 01:52:17;;;;;;;4.95;3.95;;;;;;;;;;5063921;28;20101;-62
2022/11/28 01:54:45;;;;;;;4.90;4.40;;;;;;;;;;5063721;28;20028;-62
2022/11/28 01:57:15;;;;;;;4.55;4.07;;;;;;;;;;5063246;28;20040;-62
2022/11/28 01:59:46;;;;;;;4.00;3.70;;;;;;;;;;5063512;28;20044;-62
2022/11/28 02:02:15;;;;;;;5.20;4.43;;;;;;;;;;5063432;28;20074;-62
2022/11/28 02:04:41;;;;;;;5.75;3.80;;;;;;;;;;5062567;28;20036;-62
2022/11/28 02:07:08;;;;;;;3.95;3.65;;;;;;;;;;5062919;28;20048;-62
2022/11/28 02:09:34;;;;;;;5.72;5.07;;;;;;;;;;5063776;28;20052;-62
2022/11/28 02:12:10;;;;;;;4.50;3.92;;;;;;;;;;5064184;28;20568;-62
2022/11/28 02:14:56;;;;;;;4.32;3.78;;;;;;;;;;5099479;27;20185;-62
2022/11/28 02:17:22;;;;;;;4.28;3.88;;;;;;;;;;5067240;28;20040;-62
2022/11/28 02:19:57;;;;;;;5.55;4.95;;;;;;;;;;5069241;28;20559;-62
2022/11/28 02:22:42;;;;;;;4.70;4.20;;;;;;;;;;5066576;28;20052;-63
2022/11/28 02:25:27;;;;;;;4.82;4.35;;;;;;;;;;5067364;28;20082;-62
2022/11/28 02:28:01;;;;;;;5.38;4.10;;;;;;;;;;5066305;28;20060;-62
2022/11/28 02:30:40;;;;;;;5.53;5.03;;;;;;;;;;5067171;28;20530;-62
2022/11/28 02:33:12;;;;;;;6.53;5.80;;;;;;;;;;5068889;28;20683;-62
2022/11/28 02:35:45;;;;;;;6.47;4.78;;;;;;;;;;5066660;28;20055;-62
2022/11/28 02:38:14;;;;;;;6.40;5.22;;;;;;;;;;5067573;28;20082;-62
2022/11/28 02:40:49;;;;;;;5.72;4.47;;;;;;;;;;5067168;28;20037;-62
2022/11/28 02:43:41;;;;;;;4.40;4.00;;;;;;;;;;5066000;28;20032;-62
2022/11/28 02:46:22;;;;;;;5.00;4.60;;;;;;;;;;5064718;28;20049;-62
2022/11/28 02:48:55;;;;;;;5.50;4.97;;;;;;;;;;5067967;28;20033;-62
2022/11/28 02:51:20;;;;;;;;;;;;;;;;;;5067294;28;20044;-62
2022/11/28 02:53:48;;;;;;;5.38;4.88;;;;;;;;;;5066288;28;19973;-62
2022/11/28 02:56:14;;;;;;;6.05;5.38;;;;;;;;;;5066393;28;20556;-62
2022/11/28 02:58:40;;;;;;;6.03;5.53;;;;;;;;;;5066872;28;20430;-62
2022/11/28 03:01:12;;;;;;;5.90;5.30;;;;;;;;;;5067915;28;20036;-62
2022/11/28 03:04:01;;;;;;;5.32;4.82;;;;;;;;;;5063373;28;20063;-62
2022/11/28 03:06:46;;;;;;;6.07;5.57;;;;;;;;;;5062621;28;20044;-62
2022/11/28 03:09:38;;;;;;;6.57;5.90;;;;;;;;;;5065182;28;20037;-62
2022/11/28 03:12:22;;;;;;;6.47;5.88;;;;;;;;;;5048547;28;20525;-62
2022/11/28 03:14:50;;;;;;;7.03;6.32;;;;;;;;;;5066936;28;20045;-62
2022/11/28 03:17:24;;;;;;;7.70;6.95;;;;;;;;;;5065636;28;20330;-62
2022/11/28 03:20:06;;;;;;;5.93;5.32;;;;;;;;;;5065994;28;20052;-62
2022/11/28 03:22:50;;;;;;;6.45;5.65;;;;;;;;;;5065560;28;20233;-62
2022/11/28 03:25:24;;;;;;;4.93;4.53;;;;;;;;;;5064365;28;20090;-62
2022/11/28 03:27:52;;;;;;;5.15;4.68;;;;;;;;;;5065975;28;20051;-62
2022/11/28 03:30:38;;;;;;;6.50;5.93;;;;;;;;;;5064998;28;20036;-62
2022/11/28 03:33:05;;;;;;;6.80;6.13;;;;;;;;;;5065116;28;20442;-62
2022/11/28 03:35:34;;;;;;;5.95;5.45;;;;;;;;;;5062146;28;20279;-62
2022/11/28 03:38:02;;;;;;;7.88;6.75;;;;;;;;;;5064146;28;20496;-62
2022/11/28 03:40:32;;;;;;;6.75;6.13;;;;;;;;;;5065570;28;20491;-62
2022/11/28 03:43:01;;;;;;;5.80;5.30;;;;;;;;;;5065246;28;20617;-62
2022/11/28 03:45:28;;;;;;;7.65;6.85;;;;;;;;;;5062909;28;20033;-62
2022/11/28 03:48:00;;;;;;;7.20;6.47;;;;;;;;;;5065737;28;20117;-62
2022/11/28 03:50:28;;;;;;;7.40;6.45;;;;;;;;;;5063148;28;20507;-62
2022/11/28 03:53:03;;;;;;;6.45;5.85;;;;;;;;;;5064636;28;20111;-62
2022/11/28 03:55:45;;;;;;;6.38;5.78;;;;;;;;;;5065642;28;20455;-62
2022/11/28 03:58:11;;;;;;;8.07;7.27;;;;;;;;;;5064969;28;20075;-62
2022/11/28 04:00:40;;;;;;;8.63;7.63;;;;;;;;;;5066166;28;20511;-62
2022/11/28 04:03:24;;;;;;;7.95;7.15;;;;;;;;;;5065419;28;20622;-62
2022/11/28 04:05:58;;;;;;;7.28;6.57;;;;;;;;;;5065993;28;20048;-62
2022/11/28 04:08:26;;;;;;;7.22;6.32;;;;;;;;;;5064442;28;20047;-62
2022/11/28 04:10:56;;;;;;;8.35;6.43;;;;;;;;;;5062483;28;20139;-62
2022/11/28 04:13:34;;;;;;;7.47;6.80;;;;;;;;;;5063463;28;20052;-62
2022/11/28 04:16:06;;;;;;;8.27;7.43;;;;;;;;;;5062766;28;20040;-62
2022/11/28 04:18:51;;;;;;;8.18;7.47;;;;;;;;;;5062903;28;20036;-62
2022/11/28 04:21:24;;;;;;;7.72;7.03;;;;;;;;;;5062307;28;20395;-62
2022/11/28 04:23:51;;;;;;;7.30;6.60;;;;;;;;;;5063145;28;21754;-61
2022/11/28 04:26:19;;;;;;;7.90;7.15;;;;;;;;;;5063131;28;20032;-62
2022/11/28 04:28:46;;;;;;;7.43;6.72;;;;;;;;;;5062494;28;20037;-63
2022/11/28 04:31:13;;;;;;;6.95;6.28;;;;;;;;;;5063289;28;20488;-63
2022/11/28 04:33:41;;;;;;;6.40;5.90;;;;;;;;;;5063274;28;20041;-63
2022/11/28 04:36:08;;;;;;;8.15;7.15;;;;;;;;;;5063768;28;20055;-62
2022/11/28 04:38:34;;;;;;;8.30;7.50;;;;;;;;;;5062874;28;20052;-63
2022/11/28 04:41:21;;;;;;;8.23;7.43;;;;;;;;;;5063189;28;20526;-63
2022/11/28 04:43:52;;;;;;;6.97;6.38;;;;;;;;;;5062387;28;20048;-62
2022/11/28 04:46:23;;;;;;;8.50;7.70;;;;;;;;;;5063663;28;20036;-63
2022/11/28 04:48:49;;;;;;;8.68;7.97;;;;;;;;;;5062823;28;20047;-63
2022/11/28 04:51:15;;;;;;;7.30;6.72;;;;;;;;;;5063524;28;20087;-62
2022/11/28 04:53:52;;;;;;;7.25;6.55;;;;;;;;;;5063682;28;20076;-62
2022/11/28 04:56:23;;;;;;;7.60;7.00;;;;;;;;;;5061816;28;20128;-62
2022/11/28 04:58:50;;;;;;;7.40;6.70;;;;;;;;;;5062623;28;20033;-62
2022/11/28 05:01:22;;;;;;;6.47;5.97;;;;;;;;;;5063460;28;20048;-62
2022/11/28 05:03:48;;;;;;;7.57;6.53;;;;;;;;;;5060677;28;20051;-62
2022/11/28 05:06:24;;;;;;;6.95;6.35;;;;;;;;;;5062912;28;20041;-63
2022/11/28 05:08:50;;;;;;;7.93;7.07;;;;;;;;;;5061170;28;20052;-62
2022/11/28 05:11:16;;;;;;;6.10;5.57;;;;;;;;;;5061982;28;20451;-63
2022/11/28 05:13:43;;;;;;;7.30;6.70;;;;;;;;;;5063078;28;20044;-62
2022/11/28 05:16:11;;;;;;;6.95;6.32;;;;;;;;;;5061935;28;20503;-63
2022/11/28 05:18:37;;;;;;;7.03;6.43;;;;;;;;;;5062155;28;20119;-63
2022/11/28 05:21:07;;;;;;;7.38;6.68;;;;;;;;;;5062728;28;20048;-63
2022/11/28 05:23:33;;;;;;;7.13;6.53;;;;;;;;;;5066842;28;20049;-63
2022/11/28 05:26:04;;;;;;;6.68;6.07;;;;;;;;;;5062282;28;20510;-63
2022/11/28 05:28:30;;;;;;;8.32;7.55;;;;;;;;;;5060880;28;20047;-63
2022/11/28 05:30:57;;;;;;;6.55;6.00;;;;;;;;;;5061389;28;20415;-63
2022/11/28 05:33:23;;;;;;;6.28;5.70;;;;;;;;;;5063290;28;20032;-63
2022/11/28 05:35:49;;;;;;;6.13;5.53;;;;;;;;;;5062286;28;20046;-63
2022/11/28 05:38:15;;;;;;;7.03;6.43;;;;;;;;;;5063829;28;20116;-63
2022/11/28 05:40:43;;;;;;;7.00;6.40;;;;;;;;;;5062683;28;20045;-63
2022/11/28 05:43:09;;;;;;;7.65;6.95;;;;;;;;;;5061870;28;20072;-63
2022/11/28 05:45:39;;;;;;;7.85;7.13;;;;;;;;;;5061767;28;20139;-63
2022/11/28 05:48:05;;;;;;;7.60;6.90;;;;;;;;;;5064672;28;20163;-63
2022/11/28 05:50:31;;;;;;;6.95;6.35;;;;;;;;;;5066463;28;20035;-63
2022/11/28 05:52:57;;;;;;;7.60;7.00;;;;;;;;;;5065588;28;20044;-63
2022/11/28 05:55:23;;;;;;;7.40;6.70;;;;;;;;;;5066019;28;20093;-63
2022/11/28 05:57:49;;;;;;;6.95;6.25;;;;;;;;;;5065786;28;20059;-63
2022/11/28 06:00:15;;;;;;;7.03;6.43;;;;;;;;;;5068134;28;20045;-63
2022/11/28 06:02:41;;;;;;;5.95;5.45;;;;;;;;;;5066005;28;20045;-63
2022/11/28 06:05:08;;;;;;;7.65;7.03;;;;;;;;;;5065672;28;20052;-63
2022/11/28 06:07:34;;;;;;;7.35;6.15;;;;;;;;;;5065406;28;20051;-63
2022/11/28 06:10:00;;;;;;;7.30;6.60;;;;;;;;;;5066577;28;20480;-63
2022/11/28 06:12:26;;;;;;;7.57;6.88;;;;;;;;;;5066289;28;20101;-63
2022/11/28 06:14:52;;;;;;;7.32;6.70;;;;;;;;;;5065439;28;20086;-63
2022/11/28 06:17:19;;;;;;;6.45;5.85;;;;;;;;;;5065739;28;20594;-63
2022/11/28 06:19:45;;;;;;;5.18;4.75;;;;;;;;;;5065914;28;20121;-63
2022/11/28 06:22:11;;;;;;;5.57;5.13;;;;;;;;;;5064737;28;20044;-63
2022/11/28 06:24:37;;;;;;;4.97;4.57;;;;;;;;;;5064099;28;20090;-63
2022/11/28 06:27:03;;;;;;;6.45;5.95;;;;;;;;;;5063646;28;20036;-63
2022/11/28 06:29:28;;;;;;;6.40;5.80;;;;;;;;;;5098076;27;20241;-63
2022/11/28 06:31:55;;;;;;;5.68;5.18;;;;;;;;;;5064844;28;20055;-63
2022/11/28 06:34:21;;;;;;;4.53;4.22;;;;;;;;;;5069437;28;20048;-63
2022/11/28 06:36:47;;;;;;;5.32;4.93;;;;;;;;;;5065808;28;20119;-63
2022/11/28 06:39:14;;;;;;;5.22;4.72;;;;;;;;;;5064456;28;20393;-63
2022/11/28 06:41:41;;;;;;;4.45;4.15;;;;;;;;;;5063693;28;20391;-63
2022/11/28 06:44:07;;;;;;;4.82;4.43;;;;;;;;;;5065263;28;20048;-63
2022/11/28 06:46:33;;;;;;;6.38;5.78;;;;;;;;;;5066281;28;20028;-64
2022/11/28 06:48:59;;;;;;;6.35;5.85;;;;;;;;;;5064069;28;20066;-63
2022/11/28 06:51:25;;;;;;;6.35;5.75;;;;;;;;;;5065750;28;20041;-63
2022/11/28 06:53:51;;;;;;;5.97;5.45;;;;;;;;;;5065605;28;20407;-63
2022/11/28 06:56:19;;;;;;;5.78;5.20;;;;;;;;;;5064639;28;20094;-63
2022/11/28 06:58:45;;;;;;;6.10;5.60;;;;;;;;;;5093486;28;20044;-63
2022/11/28 07:01:18;;;;;;;6.90;6.30;;;;;;;;;;5063231;28;20491;-63
2022/11/28 07:03:45;;;;;;;6.50;5.93;;;;;;;;;;5063277;28;20082;-63
2022/11/28 07:06:12;;;;;;;6.25;5.65;;;;;;;;;;5065352;28;20392;-63
2022/11/28 07:08:38;;;;;;;7.15;6.55;;;;;;;;;;5068120;28;20035;-63
2022/11/28 07:11:08;;;;;;;6.18;5.57;;;;;;;;;;5064818;28;20099;-63
2022/11/28 07:13:34;;;;;;;5.05;4.63;;;;;;;;;;5066392;28;20053;-63
2022/11/28 07:16:00;;;;;;;5.68;4.85;;;;;;;;;;5066705;28;20380;-63
2022/11/28 07:18:26;;;;;;;5.68;5.18;;;;;;;;;;5066399;28;20043;-63
2022/11/28 07:20:52;;;;;;;5.03;4.53;;;;;;;;;;5066955;28;20054;-63
2022/11/28 07:23:18;;;;;;;4.30;4.00;;;;;;;;;;5065620;28;20516;-64
2022/11/28 07:25:44;;;;;;;5.32;4.82;;;;;;;;;;5067116;28;20080;-63
2022/11/28 07:28:10;;;;;;;5.38;4.82;;;;;;;;;;5071170;28;20045;-63
2022/11/28 07:30:36;;;;;;;5.75;4.95;;;;;;;;;;5066003;28;20372;-64
2022/11/28 07:33:02;;;;;;;5.05;4.65;;;;;;;;;;5066076;28;20047;-63
2022/11/28 07:35:28;;;;;;;5.65;5.05;;;;;;;;;;5066163;28;20052;-64
2022/11/28 07:37:54;;;;;;;4.78;4.38;;;;;;;;;;5066148;28;20539;-63
2022/11/28 07:40:21;;;;;;;5.32;4.82;;;;;;;;;;5065956;28;20040;-64
2022/11/28 07:42:47;;;;;;;4.38;3.97;;;;;;;;;;5066160;28;20044;-63
2022/11/28 07:45:13;;;;;;;4.03;3.72;;;;;;;;;;5065505;28;20562;-63
2022/11/28 07:47:39;;;;;;;3.83;3.53;;;;;;;;;;5069098;28;20494;-63
2022/11/28 07:50:06;;;;;;;4.32;4.03;;;;;;;;;;5066432;28;20040;-63
2022/11/28 07:52:32;;;;;;;4.20;3.90;;;;;;;;;;5064933;28;20056;-63
2022/11/28 07:54:58;;;;;;;4.57;4.18;;;;;;;;;;5065940;28;20044;-63
2022/11/28 07:57:24;;;;;;;5.90;4.75;;;;;;;;;;5066018;28;20411;-64
2022/11/28 07:59:50;;;;;;;4.75;4.35;;;;;;;;;;5068332;28;20111;-63
2022/11/28 08:02:15;;;;;;;4.93;4.53;;;;;;;;;;5066187;28;20514;-63
2022/11/28 08:04:41;;;;;;;4.90;4.38;;;;;;;;;;5067017;28;20040;-63
2022/11/28 08:07:07;;;;;;;5.25;4.78;;;;;;;;;;5065765;28;20085;-63
2022/11/28 08:09:33;;;;;;;5.55;5.05;;;;;;;;;;5071208;28;20442;-63
2022/11/28 08:11:59;;;;;;;5.63;5.13;;;;;;;;;;5071485;28;20066;-63
2022/11/28 08:14:25;;;;;;;5.60;5.10;;;;;;;;;;5065271;28;20131;-63
2022/11/28 08:16:51;;;;;;;5.30;4.90;;;;;;;;;;5069049;28;20072;-63
2022/11/28 08:19:18;;;;;;;4.90;4.50;;;;;;;;;;5066466;28;20133;-64
2022/11/28 08:21:43;;;;;;;5.70;5.20;;;;;;;;;;5066977;28;20168;-63
2022/11/28 08:24:10;;;;;;;6.35;5.78;;;;;;;;;;5066182;28;20538;-63
2022/11/28 08:26:36;;;;;;;5.85;5.40;;;;;;;;;;5065652;28;20051;-63
2022/11/28 08:29:03;;;;;;;5.35;4.95;;;;;;;;;;5071648;28;20044;-63
2022/11/28 08:31:33;;;;;;;5.10;4.60;;;;;;;;;;5070351;28;20059;-63
2022/11/28 08:34:00;;;;;;;4.95;4.50;;;;;;;;;;5062567;28;20055;-63
2022/11/28 08:36:26;;;;;;;5.80;5.30;;;;;;;;;;5064529;28;20067;-63
2022/11/28 08:38:53;;;;;;;5.80;5.30;;;;;;;;;;5065775;28;20517;-64
2022/11/28 08:41:20;;;;;;;4.55;4.15;;;;;;;;;;5064163;28;20048;-63
2022/11/28 08:43:46;;;;;;;5.45;4.95;;;;;;;;;;5063035;28;20067;-63
2022/11/28 08:46:14;;;;;;;4.70;4.30;;;;;;;;;;5063618;28;20037;-63
2022/11/28 08:48:40;;;;;;;4.53;4.18;;;;;;;;;;5063601;28;20495;-63
2022/11/28 08:51:08;;;;;;;4.57;4.28;;;;;;;;;;5064227;28;20048;-63
2022/11/28 08:53:34;;;;;;;4.32;4.03;;;;;;;;;;5064582;28;20040;-63
2022/11/28 08:56:00;;;;;;;4.68;4.28;;;;;;;;;;5063589;28;20048;-65
2022/11/28 08:58:26;;;;;;;4.55;4.22;;;;;;;;;;5062156;28;20795;-64
2022/11/28 09:00:52;;;;;;;4.25;3.75;;;;;;;;;;5060014;28;20224;-65
2022/11/28 09:03:19;;;;;;;4.18;3.88;;;;;;;;;;5064847;28;20084;-65
2022/11/28 09:05:46;;;;;;;5.05;4.60;;;;;;;;;;5062498;28;20230;-64
2022/11/28 09:08:15;;;;;;;4.35;3.95;;;;;;;;;;5061470;28;20041;-64
2022/11/28 09:10:42;;;;;;;4.10;3.80;;;;;;;;;;5059543;28;20059;-62
2022/11/28 09:13:08;;;;;;;4.80;4.40;;;;;;;;;;5061446;28;20048;-65
2022/11/28 09:15:34;;;;;;;3.90;3.58;;;;;;;;;;5063159;28;20495;-64
2022/11/28 09:18:01;;;;;;;4.32;4.00;;;;;;;;;;5063126;28;20551;-64
2022/11/28 09:20:27;;;;;;;4.35;3.95;;;;;;;;;;5072661;28;20041;-64
2022/11/28 09:22:53;;;;;;;5.03;4.63;;;;;;;;;;5069095;28;20048;-64
2022/11/28 09:25:19;;;;;;;4.22;3.92;;;;;;;;;;5070333;28;20039;-65
2022/11/28 09:27:44;;;;;;;4.38;4.03;;;;;;;;;;5069085;28;20129;-64
2022/11/28 09:30:11;;;;;;;3.65;3.35;;;;;;;;;;5067446;28;20037;-64
2022/11/28 09:32:37;;;;;;;4.15;3.85;;;;;;;;;;5072158;28;20247;-65
2022/11/28 09:35:03;;;;;;;4.38;3.85;;;;;;;;;;5075282;28;20491;-65
2022/11/28 09:37:29;;;;;;;4.80;4.40;;;;;;;;;;5064758;28;20619;-60
2022/11/28 09:39:55;;;;;;;3.78;3.47;;;;;;;;;;5068098;28;20361;-59
2022/11/28 09:42:27;;;;;;;4.07;3.78;;;;;;;;;;5060250;28;20044;-56
2022/11/28 09:44:55;;;;;;;4.90;4.47;;;;;;;;;;5066165;28;20037;-61
2022/11/28 09:47:32;;;;;;;4.13;3.80;;;;;;;;;;5065430;28;20124;-61
2022/11/28 09:50:06;;;;;;;4.20;3.90;;;;;;;;;;5066538;28;20380;-64
2022/11/28 09:52:37;;;;;;;4.03;3.65;;;;;;;;;;5073683;28;20453;-65
2022/11/28 09:55:06;;;;;;;3.47;3.17;;;;;;;;;;5073938;28;20036;-65
2022/11/28 09:57:35;;;;;;;4.00;3.70;;;;;;;;;;5063205;28;20044;-65
2022/11/28 10:00:01;;;;;;;3.92;3.63;;;;;;;;;;5066097;28;20037;-60
2022/11/28 10:02:32;;;;;;;4.50;4.10;;;;;;;;;;5066536;28;20045;-65
2022/11/28 10:05:17;;;;;;;3.80;3.50;;;;;;;;;;5061885;28;20055;-65
2022/11/28 10:07:56;;;;;;;3.65;3.35;;;;;;;;;;5060174;28;20052;-65
2022/11/28 10:10:41;;;;;;;3.30;3.00;;;;;;;;;;5055916;28;20056;-65
2022/11/28 10:13:15;;;;;;;3.70;3.40;;;;;;;;;;5059983;28;20403;-65
2022/11/28 10:15:47;;;;;;;3.88;3.58;;;;;;;;;;5095762;27;20044;-65
2022/11/28 10:18:25;;;;;;;3.70;3.40;;;;;;;;;;5060609;28;20132;-64
2022/11/28 10:20:54;;;;;;;3.55;3.30;;;;;;;;;;5065918;28;20113;-65
2022/11/28 10:23:30;;;;;;;3.72;3.42;;;;;;;;;;5067061;28;20036;-64
2022/11/28 10:25:58;;;;;;;4.65;4.25;;;;;;;;;;5072044;28;20079;-65
2022/11/28 10:28:38;;;;;;;3.63;3.33;;;;;;;;;;5063979;28;20299;-64
2022/11/28 10:31:25;;;;;;;4.28;3.67;;;;;;;;;;5068169;28;20049;-64
2022/11/28 10:34:01;;;;;;;4.05;3.75;;;;;;;;;;5076259;28;20071;-64
2022/11/28 10:36:29;;;;;;;4.47;4.07;;;;;;;;;;5068264;28;20044;-64
2022/11/28 10:38:56;;;;;;;5.38;4.47;;;;;;;;;;5066353;28;20460;-64
2022/11/28 10:41:27;;;;;;;4.93;4.47;;;;;;;;;;5072780;28;20098;-64
2022/11/28 10:43:58;;;;;;;5.78;4.78;;;;;;;;;;5099258;28;20166;-64
2022/11/28 10:46:40;;;;;;;4.72;4.35;;;;;;;;;;5068843;28;20056;-64
2022/11/28 10:49:18;;;;;;;5.85;4.55;;;;;;;;;;5053009;28;20059;-64
2022/11/28 10:51:48;;;;;;;4.72;4.05;;;;;;;;;;5064165;28;20595;-64
2022/11/28 10:54:33;;;;;;;4.65;4.25;;;;;;;;;;5059426;28;20067;-64
2022/11/28 10:57:22;;;;;;;4.88;4.47;;;;;;;;;;5057301;28;20053;-64
2022/11/28 11:00:00;;;;;;;4.15;3.75;;;;;;;;;;5067921;28;20401;-64
2022/11/28 11:02:33;;;;;;;4.22;3.90;;;;;;;;;;5057405;28;20053;-65
2022/11/28 11:04:59;;;;;;;3.67;3.38;;;;;;;;;;5059483;28;20049;-65
2022/11/28 11:07:29;;;;;;;4.10;3.70;;;;;;;;;;5058491;28;20067;-64
2022/11/28 11:10:01;;;;;;;4.40;4.00;;;;;;;;;;5067128;28;20086;-64
2022/11/28 11:12:30;;;;;;;3.67;3.38;;;;;;;;;;5051502;28;20049;-64
2022/11/28 11:14:56;;;;;;;3.20;2.90;;;;;;;;;;5058794;28;20044;-64
2022/11/28 11:17:32;;;;;;;3.67;3.38;;;;;;;;;;5061938;28;20037;-65
2022/11/28 11:19:59;;;;;;;3.90;3.60;;;;;;;;;;5071834;28;20044;-64
2022/11/28 11:22:27;;;;;;;2.58;2.38;;;;;;;;;;5068879;28;20499;-64
2022/11/28 11:25:06;;;;;;;3.08;2.88;;;;;;;;;;5098058;27;20534;-64
2022/11/28 11:27:32;;;;;;;2.25;2.05;;;;;;;;;;5070145;28;20035;-64
2022/11/28 11:29:58;;;;;;;3.08;2.88;;;;;;;;;;5062420;28;20056;-64
2022/11/28 11:32:28;;;;;;;2.42;2.20;;;;;;;;;;5060406;28;20530;-64
2022/11/28 11:34:58;;;;;;;2.65;2.50;;;;;;;;;;5063286;28;20041;-63
2022/11/28 11:37:34;;;;;;;2.90;2.70;;;;;;;;;;5065485;28;20040;-64
2022/11/28 11:40:00;;;;;;;2.85;2.65;;;;;;;;;;5063276;28;20044;-64
2022/11/28 11:42:28;;;;;;;3.45;2.72;;;;;;;;;;5065556;28;20032;-63
2022/11/28 11:44:54;;;;;;;2.10;2.00;;;;;;;;;;5058679;28;20372;-64
2022/11/28 11:47:38;;;;;;;2.45;2.25;;;;;;;;;;5060119;28;20036;-64
2022/11/28 11:50:05;;;;;;;2.63;2.33;;;;;;;;;;5066016;28;20076;-64
2022/11/28 11:52:31;;;;;;;2.38;2.17;;;;;;;;;;5065471;28;20063;-64
2022/11/28 11:54:57;;;;;;;2.47;2.28;;;;;;;;;;5065937;28;20036;-64
2022/11/28 11:57:43;;;;;;;2.28;2.08;;;;;;;;;;5064494;28;20304;-64
2022/11/28 12:00:09;;;;;;;2.45;2.15;;;;;;;;;;5062659;28;20087;-64
2022/11/28 12:02:35;;;;;;;2.45;2.25;;;;;;;;;;5065347;28;20044;-64
2022/11/28 12:05:13;;;;;;;2.25;2.08;;;;;;;;;;5065291;28;20044;-64
2022/11/28 12:07:50;;;;;;;2.92;2.60;;;;;;;;;;5059469;28;20080;-64
2022/11/28 12:10:18;;;;;;;2.92;2.72;;;;;;;;;;5064788;28;20059;-64
2022/11/28 12:12:44;;;;;;;3.45;3.15;;;;;;;;;;5065213;28;20083;-64
2022/11/28 12:15:19;;;;;;;3.47;3.20;;;;;;;;;;5064134;28;20048;-64
2022/11/28 12:18:04;;;;;;;3.22;2.60;;;;;;;;;;5063368;28;20429;-64
2022/11/28 12:20:43;;;;;;;3.22;2.92;;;;;;;;;;5061569;28;20119;-64
2022/11/28 12:23:25;;;;;;;2.50;2.30;;;;;;;;;;5064313;28;20052;-63
2022/11/28 12:25:55;;;;;;;2.85;2.65;;;;;;;;;;5059475;28;20127;-64
2022/11/28 12:28:36;;;;;;;3.10;2.90;;;;;;;;;;5067168;28;20044;-64
2022/11/28 12:31:16;;;;;;;3.33;3.05;;;;;;;;;;5065417;28;20045;-64
2022/11/28 12:33:45;;;;;;;3.10;2.90;;;;;;;;;;5059877;28;20514;-64
2022/11/28 12:36:20;;;;;;;3.40;3.10;;;;;;;;;;5061535;28;20041;-63
2022/11/28 12:38:46;;;;;;;3.78;3.47;;;;;;;;;;5065562;28;20044;-64
2022/11/28 12:41:12;;;;;;;3.60;3.30;;;;;;;;;;5065317;28;20063;-64
2022/11/28 12:43:38;;;;;;;3.13;2.92;;;;;;;;;;5071941;28;20044;-64
2022/11/28 12:46:09;;;;;;;2.90;2.70;;;;;;;;;;5053118;28;20529;-64
2022/11/28 12:48:58;;;;;;;3.55;3.25;;;;;;;;;;5063504;28;20507;-63
2022/11/28 12:51:49;;;;;;;3.97;3.67;;;;;;;;;;5063783;28;20075;-64
2022/11/28 12:54:28;;;;;;;3.67;3.38;;;;;;;;;;5061915;28;20760;-63
2022/11/28 12:56:59;;;;;;;3.40;3.20;;;;;;;;;;5064350;28;20135;-62
2022/11/28 12:59:29;;;;;;;3.15;2.90;;;;;;;;;;5063753;28;20044;-62
2022/11/28 13:02:21;;;;;;;2.42;2.22;;;;;;;;;;5063999;28;20048;-62
2022/11/28 13:04:57;;;;;;;2.90;2.70;;;;;;;;;;5054011;28;20626;-63
2022/11/28 13:07:34;;;;;;;5.45;3.15;;;;;;;;;;5063610;28;20402;-63
2022/11/28 13:10:02;;;;;;;4.13;3.83;;;;;;;;;;5060186;28;20048;-63
2022/11/28 13:12:40;;;;;;;3.70;3.40;;;;;;;;;;5063566;28;20551;-62
2022/11/28 13:15:29;;;;;;;3.50;3.20;;;;;;;;;;5062808;28;20055;-63
2022/11/28 13:18:02;;;;;;;3.42;3.10;;;;;;;;;;5055879;28;20041;-62
2022/11/28 13:20:27;;;;;;;;;;;;;;;;;;5065323;28;20044;-63
2022/11/28 13:23:15;;;;;;;3.92;3.63;;;;;;;;;;5063873;28;19920;-62
2022/11/28 13:26:00;;;;;;;4.07;3.78;;;;;;;;;;5064489;28;20109;-62
2022/11/28 13:28:35;;;;;;;3.17;2.97;;;;;;;;;;5063821;28;20574;-62
2022/11/28 13:31:11;;;;;;;3.92;3.63;;;;;;;;;;5059428;28;20124;-62
2022/11/28 13:33:53;;;;;;;3.25;2.95;;;;;;;;;;5063511;28;20041;-62
2022/11/28 13:36:22;;;;;;;3.20;2.80;;;;;;;;;;5063175;28;20045;-62
2022/11/28 13:38:56;;;;;;;2.65;2.45;;;;;;;;;;5064437;28;20059;-62
2022/11/28 13:41:24;;;;;;;2.60;2.40;;;;;;;;;;5063256;28;20041;-62
2022/11/28 13:44:00;;;;;;;2.90;2.60;;;;;;;;;;5064033;28;20547;-62
2022/11/28 13:46:27;;;;;;;2.85;2.65;;;;;;;;;;5064561;28;20067;-62
2022/11/28 13:49:00;;;;;;;2.35;2.20;;;;;;;;;;5065474;28;20044;-62
2022/11/28 13:51:29;;;;;;;2.85;2.40;;;;;;;;;;5064061;28;20064;-65
2022/11/28 13:54:14;;;;;;;1.90;1.80;;;;;;;;;;5064689;28;20052;-64
2022/11/28 13:56:41;;;;;;;2.00;1.75;;;;;;;;;;5064526;28;20044;-64
2022/11/28 13:59:16;;;;;;;2.80;2.50;;;;;;;;;;5063797;28;20045;-64
2022/11/28 14:01:42;;;;;;;2.65;2.45;;;;;;;;;;5064922;28;20040;-64
2022/11/28 14:04:15;;;;;;;3.50;3.20;;;;;;;;;;5063077;28;20057;-64
2022/11/28 14:07:01;;;;;;;3.30;3.00;;;;;;;;;;5063513;28;20491;-64
2022/11/28 14:09:33;;;;;;;2.92;2.67;;;;;;;;;;5065339;28;20065;-64
2022/11/28 14:12:05;;;;;;;2.40;2.20;;;;;;;;;;5065914;28;20053;-64
2022/11/28 14:14:39;;;;;;;2.50;2.30;;;;;;;;;;5063710;28;20251;-64
2022/11/28 14:17:24;;;;;;;3.47;3.17;;;;;;;;;;5067516;28;20202;-66
2022/11/28 14:19:53;;;;;;;3.53;3.22;;;;;;;;;;5068112;28;20036;-64
2022/11/28 14:22:43;;;;;;;3.03;2.72;;;;;;;;;;5099108;28;20059;-64
2022/11/28 14:25:19;;;;;;;2.13;1.92;;;;;;;;;;5063881;28;20037;-64
2022/11/28 14:27:53;;;;;;;3.35;2.55;;;;;;;;;;5068057;28;20047;-64
2022/11/28 14:30:40;;;;;;;1.65;1.55;;;;;;;;;;5069534;28;20045;-64
2022/11/28 14:33:15;;;;;;;2.88;2.60;;;;;;;;;;5066657;28;20045;-64
2022/11/28 14:36:04;;;;;;;2.78;2.58;;;;;;;;;;5069882;28;20075;-64
2022/11/28 14:38:30;;;;;;;2.92;2.72;;;;;;;;;;5063156;28;20132;-64
2022/11/28 14:40:56;;;;;;;2.88;2.67;;;;;;;;;;5065306;28;20542;-61
2022/11/28 14:43:25;;;;;;;2.58;2.38;;;;;;;;;;5065628;28;20055;-61
2022/11/28 14:45:52;;;;;;;3.40;3.10;;;;;;;;;;5066131;28;20123;-61
2022/11/28 14:48:21;;;;;;;2.97;2.67;;;;;;;;;;5064400;28;20483;-61
2022/11/28 14:50:48;;;;;;;4.30;3.90;;;;;;;;;;5065567;28;20423;-61
2022/11/28 14:53:36;;;;;;;4.50;4.10;;;;;;;;;;5064949;28;20051;-61
2022/11/28 14:56:21;;;;;;;5.88;5.28;;;;;;;;;;5099025;28;20048;-61
2022/11/28 14:58:48;;;;;;;5.15;4.65;;;;;;;;;;5061542;28;20123;-62
2022/11/28 15:01:16;;;;;;;6.00;5.50;;;;;;;;;;5065580;28;20095;-61
2022/11/28 15:03:42;;;;;;;4.85;4.40;;;;;;;;;;5062903;28;20048;-62